sensor_id;sensor_type;location;lat;lon;timestamp;P1;durP1;ratioP1;P2;durP2;ratioP2
70929;SDS011;58588;48.102;19.682;2022-10-14T00:01:54;35.90;;;16.23;;
70929;SDS011;58588;48.102;19.682;2022-10-14T00:04:56;37.23;;;16.07;;
70929;SDS011;58588;48.102;19.682;2022-10-14T00:07:58;30.80;;;15.13;;
70929;SDS011;58588;48.102;19.682;2022-10-14T00:11:04;31.67;;;14.98;;
70929;SDS011;58588;48.102;19.682;2022-10-14T00:14:09;31.42;;;15.18;;
70929;SDS011;58588;48.102;19.682;2022-10-14T00:17:13;32.25;;;14.70;;
70929;SDS011;58588;48.102;19.682;2022-10-14T00:20:15;35.67;;;15.63;;
70929;SDS011;58588;48.102;19.682;2022-10-14T00:23:17;35.90;;;15.87;;
70929;SDS011;58588;48.102;19.682;2022-10-14T00:26:19;35.20;;;15.98;;
70929;SDS011;58588;48.102;19.682;2022-10-14T00:29:24;35.97;;;16.02;;
70929;SDS011;58588;48.102;19.682;2022-10-14T00:32:26;34.53;;;15.10;;
70929;SDS011;58588;48.102;19.682;2022-10-14T00:35:28;30.97;;;15.17;;
70929;SDS011;58588;48.102;19.682;2022-10-14T00:38:31;30.67;;;15.00;;
70929;SDS011;58588;48.102;19.682;2022-10-14T00:41:33;35.05;;;14.80;;
70929;SDS011;58588;48.102;19.682;2022-10-14T00:44:58;34.30;;;14.65;;
70929;SDS011;58588;48.102;19.682;2022-10-14T00:48:11;32.30;;;15.07;;
70929;SDS011;58588;48.102;19.682;2022-10-14T00:51:13;33.67;;;15.50;;
70929;SDS011;58588;48.102;19.682;2022-10-14T00:54:16;33.20;;;15.10;;
70929;SDS011;58588;48.102;19.682;2022-10-14T00:57:21;32.63;;;15.65;;
70929;SDS011;58588;48.102;19.682;2022-10-14T01:00:26;31.83;;;14.60;;
70929;SDS011;58588;48.102;19.682;2022-10-14T01:03:28;35.47;;;15.60;;
70929;SDS011;58588;48.102;19.682;2022-10-14T01:06:44;32.13;;;15.00;;
70929;SDS011;58588;48.102;19.682;2022-10-14T01:09:55;31.70;;;14.70;;
70929;SDS011;58588;48.102;19.682;2022-10-14T01:13:12;30.38;;;14.70;;
70929;SDS011;58588;48.102;19.682;2022-10-14T01:16:24;37.20;;;15.82;;
70929;SDS011;58588;48.102;19.682;2022-10-14T01:19:36;34.13;;;14.75;;
70929;SDS011;58588;48.102;19.682;2022-10-14T01:23:11;32.33;;;14.40;;
70929;SDS011;58588;48.102;19.682;2022-10-14T01:26:32;37.23;;;14.97;;
70929;SDS011;58588;48.102;19.682;2022-10-14T01:30:09;35.42;;;16.15;;
70929;SDS011;58588;48.102;19.682;2022-10-14T01:33:15;32.35;;;16.35;;
70929;SDS011;58588;48.102;19.682;2022-10-14T01:36:23;35.63;;;16.63;;
70929;SDS011;58588;48.102;19.682;2022-10-14T01:39:32;36.20;;;17.07;;
70929;SDS011;58588;48.102;19.682;2022-10-14T01:42:41;33.60;;;14.90;;
70929;SDS011;58588;48.102;19.682;2022-10-14T01:45:47;36.58;;;15.25;;
70929;SDS011;58588;48.102;19.682;2022-10-14T01:48:50;38.25;;;16.00;;
70929;SDS011;58588;48.102;19.682;2022-10-14T01:51:57;31.85;;;14.70;;
70929;SDS011;58588;48.102;19.682;2022-10-14T01:55:05;31.33;;;14.50;;
70929;SDS011;58588;48.102;19.682;2022-10-14T01:58:13;32.50;;;14.00;;
70929;SDS011;58588;48.102;19.682;2022-10-14T02:01:19;36.67;;;14.90;;
70929;SDS011;58588;48.102;19.682;2022-10-14T02:04:21;32.28;;;15.02;;
70929;SDS011;58588;48.102;19.682;2022-10-14T02:07:25;32.95;;;14.38;;
70929;SDS011;58588;48.102;19.682;2022-10-14T02:10:37;37.03;;;16.53;;
70929;SDS011;58588;48.102;19.682;2022-10-14T02:14:01;39.57;;;17.00;;
70929;SDS011;58588;48.102;19.682;2022-10-14T02:17:14;38.45;;;16.27;;
70929;SDS011;58588;48.102;19.682;2022-10-14T02:20:24;38.42;;;16.90;;
70929;SDS011;58588;48.102;19.682;2022-10-14T02:23:31;39.33;;;16.05;;
70929;SDS011;58588;48.102;19.682;2022-10-14T02:26:38;38.80;;;17.17;;
70929;SDS011;58588;48.102;19.682;2022-10-14T02:29:43;37.87;;;16.53;;
70929;SDS011;58588;48.102;19.682;2022-10-14T02:32:48;47.13;;;17.48;;
70929;SDS011;58588;48.102;19.682;2022-10-14T02:35:51;38.10;;;17.00;;
70929;SDS011;58588;48.102;19.682;2022-10-14T02:38:57;41.00;;;17.30;;
70929;SDS011;58588;48.102;19.682;2022-10-14T02:42:01;35.17;;;16.77;;
70929;SDS011;58588;48.102;19.682;2022-10-14T02:45:04;39.10;;;16.43;;
70929;SDS011;58588;48.102;19.682;2022-10-14T02:48:09;39.85;;;16.65;;
70929;SDS011;58588;48.102;19.682;2022-10-14T02:51:12;40.28;;;16.90;;
70929;SDS011;58588;48.102;19.682;2022-10-14T02:54:14;38.35;;;17.13;;
70929;SDS011;58588;48.102;19.682;2022-10-14T02:57:16;38.20;;;16.87;;
70929;SDS011;58588;48.102;19.682;2022-10-14T03:00:18;40.03;;;17.17;;
70929;SDS011;58588;48.102;19.682;2022-10-14T03:03:22;42.25;;;17.77;;
70929;SDS011;58588;48.102;19.682;2022-10-14T03:06:24;38.25;;;17.13;;
70929;SDS011;58588;48.102;19.682;2022-10-14T03:09:27;37.42;;;17.80;;
70929;SDS011;58588;48.102;19.682;2022-10-14T03:12:28;41.07;;;17.83;;
70929;SDS011;58588;48.102;19.682;2022-10-14T03:15:31;36.63;;;17.00;;
70929;SDS011;58588;48.102;19.682;2022-10-14T03:18:34;41.70;;;18.35;;
70929;SDS011;58588;48.102;19.682;2022-10-14T03:21:36;38.85;;;17.23;;
70929;SDS011;58588;48.102;19.682;2022-10-14T03:24:38;36.55;;;17.13;;
70929;SDS011;58588;48.102;19.682;2022-10-14T03:27:40;39.80;;;17.53;;
70929;SDS011;58588;48.102;19.682;2022-10-14T03:30:42;37.07;;;16.73;;
70929;SDS011;58588;48.102;19.682;2022-10-14T03:33:46;41.47;;;17.40;;
70929;SDS011;58588;48.102;19.682;2022-10-14T03:36:48;38.55;;;17.10;;
70929;SDS011;58588;48.102;19.682;2022-10-14T03:39:50;37.35;;;17.35;;
70929;SDS011;58588;48.102;19.682;2022-10-14T03:42:52;35.83;;;16.87;;
70929;SDS011;58588;48.102;19.682;2022-10-14T03:45:54;39.00;;;16.60;;
70929;SDS011;58588;48.102;19.682;2022-10-14T03:48:58;37.85;;;16.17;;
70929;SDS011;58588;48.102;19.682;2022-10-14T03:52:00;32.90;;;15.90;;
70929;SDS011;58588;48.102;19.682;2022-10-14T03:55:02;34.53;;;16.02;;
70929;SDS011;58588;48.102;19.682;2022-10-14T03:58:04;37.90;;;16.87;;
70929;SDS011;58588;48.102;19.682;2022-10-14T04:01:06;38.17;;;18.00;;
70929;SDS011;58588;48.102;19.682;2022-10-14T04:04:10;36.08;;;16.92;;
70929;SDS011;58588;48.102;19.682;2022-10-14T04:07:12;39.88;;;17.70;;
70929;SDS011;58588;48.102;19.682;2022-10-14T04:10:14;33.42;;;16.33;;
70929;SDS011;58588;48.102;19.682;2022-10-14T04:13:16;37.10;;;16.97;;
70929;SDS011;58588;48.102;19.682;2022-10-14T04:16:18;36.73;;;16.80;;
70929;SDS011;58588;48.102;19.682;2022-10-14T04:19:22;36.65;;;18.70;;
70929;SDS011;58588;48.102;19.682;2022-10-14T04:22:24;37.33;;;17.45;;
70929;SDS011;58588;48.102;19.682;2022-10-14T04:25:25;38.95;;;18.00;;
70929;SDS011;58588;48.102;19.682;2022-10-14T04:28:27;37.07;;;18.20;;
70929;SDS011;58588;48.102;19.682;2022-10-14T04:31:29;40.63;;;19.00;;
70929;SDS011;58588;48.102;19.682;2022-10-14T04:34:33;38.65;;;18.13;;
70929;SDS011;58588;48.102;19.682;2022-10-14T04:37:35;34.15;;;16.48;;
70929;SDS011;58588;48.102;19.682;2022-10-14T04:40:37;37.90;;;16.65;;
70929;SDS011;58588;48.102;19.682;2022-10-14T04:43:39;36.20;;;16.83;;
70929;SDS011;58588;48.102;19.682;2022-10-14T04:46:41;37.20;;;15.17;;
70929;SDS011;58588;48.102;19.682;2022-10-14T04:49:44;36.63;;;17.05;;
70929;SDS011;58588;48.102;19.682;2022-10-14T04:52:46;33.10;;;16.48;;
70929;SDS011;58588;48.102;19.682;2022-10-14T04:55:48;35.47;;;17.42;;
70929;SDS011;58588;48.102;19.682;2022-10-14T04:58:50;32.80;;;16.70;;
70929;SDS011;58588;48.102;19.682;2022-10-14T05:01:52;35.07;;;17.50;;
70929;SDS011;58588;48.102;19.682;2022-10-14T05:04:56;36.20;;;16.98;;
70929;SDS011;58588;48.102;19.682;2022-10-14T05:07:58;37.83;;;18.40;;
70929;SDS011;58588;48.102;19.682;2022-10-14T05:11:00;36.05;;;16.58;;
70929;SDS011;58588;48.102;19.682;2022-10-14T05:14:03;36.67;;;17.90;;
70929;SDS011;58588;48.102;19.682;2022-10-14T05:17:05;31.90;;;16.30;;
70929;SDS011;58588;48.102;19.682;2022-10-14T05:20:09;32.83;;;15.80;;
70929;SDS011;58588;48.102;19.682;2022-10-14T05:23:11;33.58;;;15.88;;
70929;SDS011;58588;48.102;19.682;2022-10-14T05:26:13;34.70;;;16.52;;
70929;SDS011;58588;48.102;19.682;2022-10-14T05:29:15;34.87;;;17.30;;
70929;SDS011;58588;48.102;19.682;2022-10-14T05:32:17;38.47;;;18.00;;
70929;SDS011;58588;48.102;19.682;2022-10-14T05:35:20;38.08;;;17.58;;
70929;SDS011;58588;48.102;19.682;2022-10-14T05:38:22;40.00;;;17.92;;
70929;SDS011;58588;48.102;19.682;2022-10-14T05:41:24;42.15;;;19.67;;
70929;SDS011;58588;48.102;19.682;2022-10-14T05:44:26;38.53;;;18.40;;
70929;SDS011;58588;48.102;19.682;2022-10-14T05:47:28;37.20;;;17.97;;
70929;SDS011;58588;48.102;19.682;2022-10-14T05:50:31;37.85;;;16.77;;
70929;SDS011;58588;48.102;19.682;2022-10-14T05:53:33;33.50;;;17.23;;
70929;SDS011;58588;48.102;19.682;2022-10-14T05:56:38;37.72;;;17.17;;
70929;SDS011;58588;48.102;19.682;2022-10-14T05:59:40;35.57;;;16.97;;
70929;SDS011;58588;48.102;19.682;2022-10-14T06:02:42;33.00;;;16.03;;
70929;SDS011;58588;48.102;19.682;2022-10-14T06:05:45;33.15;;;16.83;;
70929;SDS011;58588;48.102;19.682;2022-10-14T06:08:47;33.30;;;16.48;;
70929;SDS011;58588;48.102;19.682;2022-10-14T06:11:50;31.65;;;16.52;;
70929;SDS011;58588;48.102;19.682;2022-10-14T06:14:52;33.13;;;16.87;;
70929;SDS011;58588;48.102;19.682;2022-10-14T06:17:54;28.83;;;15.37;;
70929;SDS011;58588;48.102;19.682;2022-10-14T06:20:57;30.15;;;15.95;;
70929;SDS011;58588;48.102;19.682;2022-10-14T06:23:59;29.38;;;15.02;;
70929;SDS011;58588;48.102;19.682;2022-10-14T06:27:01;30.88;;;15.48;;
70929;SDS011;58588;48.102;19.682;2022-10-14T06:30:04;30.10;;;15.17;;
70929;SDS011;58588;48.102;19.682;2022-10-14T06:33:06;30.23;;;15.33;;
70929;SDS011;58588;48.102;19.682;2022-10-14T06:36:10;26.70;;;14.25;;
70929;SDS011;58588;48.102;19.682;2022-10-14T06:39:12;28.05;;;14.80;;
70929;SDS011;58588;48.102;19.682;2022-10-14T06:42:14;32.58;;;15.70;;
70929;SDS011;58588;48.102;19.682;2022-10-14T06:45:16;34.03;;;16.20;;
70929;SDS011;58588;48.102;19.682;2022-10-14T06:48:18;30.83;;;15.57;;
70929;SDS011;58588;48.102;19.682;2022-10-14T06:51:21;28.90;;;15.75;;
70929;SDS011;58588;48.102;19.682;2022-10-14T06:54:23;31.27;;;15.38;;
70929;SDS011;58588;48.102;19.682;2022-10-14T06:57:25;29.48;;;15.93;;
70929;SDS011;58588;48.102;19.682;2022-10-14T07:00:27;29.60;;;15.20;;
70929;SDS011;58588;48.102;19.682;2022-10-14T07:03:29;28.50;;;14.87;;
70929;SDS011;58588;48.102;19.682;2022-10-14T07:06:32;28.63;;;15.50;;
70929;SDS011;58588;48.102;19.682;2022-10-14T07:09:34;33.25;;;14.88;;
70929;SDS011;58588;48.102;19.682;2022-10-14T07:12:36;32.00;;;16.05;;
70929;SDS011;58588;48.102;19.682;2022-10-14T07:15:38;26.23;;;14.70;;
70929;SDS011;58588;48.102;19.682;2022-10-14T07:18:40;29.00;;;16.03;;
70929;SDS011;58588;48.102;19.682;2022-10-14T07:21:44;29.95;;;16.17;;
70929;SDS011;58588;48.102;19.682;2022-10-14T07:24:46;28.70;;;15.95;;
70929;SDS011;58588;48.102;19.682;2022-10-14T07:27:49;31.58;;;16.52;;
70929;SDS011;58588;48.102;19.682;2022-10-14T07:30:56;29.03;;;16.37;;
70929;SDS011;58588;48.102;19.682;2022-10-14T07:33:59;27.00;;;15.17;;
70929;SDS011;58588;48.102;19.682;2022-10-14T07:37:03;28.95;;;15.75;;
70929;SDS011;58588;48.102;19.682;2022-10-14T07:40:05;34.70;;;17.20;;
70929;SDS011;58588;48.102;19.682;2022-10-14T07:43:08;35.92;;;16.17;;
70929;SDS011;58588;48.102;19.682;2022-10-14T07:46:11;34.73;;;16.57;;
70929;SDS011;58588;48.102;19.682;2022-10-14T07:49:14;32.30;;;16.67;;
70929;SDS011;58588;48.102;19.682;2022-10-14T07:52:19;29.23;;;15.23;;
70929;SDS011;58588;48.102;19.682;2022-10-14T07:55:21;29.13;;;15.02;;
70929;SDS011;58588;48.102;19.682;2022-10-14T07:58:24;29.48;;;15.60;;
70929;SDS011;58588;48.102;19.682;2022-10-14T08:01:27;27.50;;;16.13;;
70929;SDS011;58588;48.102;19.682;2022-10-14T08:04:29;29.20;;;14.23;;
70929;SDS011;58588;48.102;19.682;2022-10-14T08:07:33;27.17;;;14.98;;
70929;SDS011;58588;48.102;19.682;2022-10-14T08:10:35;26.13;;;15.00;;
70929;SDS011;58588;48.102;19.682;2022-10-14T08:13:39;28.27;;;14.80;;
70929;SDS011;58588;48.102;19.682;2022-10-14T08:16:41;26.40;;;14.20;;
70929;SDS011;58588;48.102;19.682;2022-10-14T08:19:44;25.53;;;13.90;;
70929;SDS011;58588;48.102;19.682;2022-10-14T08:22:47;31.55;;;14.65;;
70929;SDS011;58588;48.102;19.682;2022-10-14T08:25:49;25.90;;;14.55;;
70929;SDS011;58588;48.102;19.682;2022-10-14T08:28:51;25.67;;;13.05;;
70929;SDS011;58588;48.102;19.682;2022-10-14T08:31:53;23.77;;;13.43;;
70929;SDS011;58588;48.102;19.682;2022-10-14T08:34:55;24.43;;;14.10;;
70929;SDS011;58588;48.102;19.682;2022-10-14T08:37:59;24.77;;;13.80;;
70929;SDS011;58588;48.102;19.682;2022-10-14T08:41:08;29.92;;;14.50;;
70929;SDS011;58588;48.102;19.682;2022-10-14T08:44:39;28.00;;;14.95;;
70929;SDS011;58588;48.102;19.682;2022-10-14T08:47:43;29.17;;;14.60;;
70929;SDS011;58588;48.102;19.682;2022-10-14T08:50:48;27.33;;;14.33;;
70929;SDS011;58588;48.102;19.682;2022-10-14T08:53:57;26.48;;;13.95;;
70929;SDS011;58588;48.102;19.682;2022-10-14T08:57:10;25.95;;;14.18;;
70929;SDS011;58588;48.102;19.682;2022-10-14T09:00:15;24.67;;;13.63;;
70929;SDS011;58588;48.102;19.682;2022-10-14T09:03:19;24.17;;;13.15;;
70929;SDS011;58588;48.102;19.682;2022-10-14T09:06:24;22.67;;;13.13;;
70929;SDS011;58588;48.102;19.682;2022-10-14T09:09:30;26.40;;;14.27;;
70929;SDS011;58588;48.102;19.682;2022-10-14T09:12:39;23.35;;;14.00;;
70929;SDS011;58588;48.102;19.682;2022-10-14T09:15:44;26.65;;;14.63;;
70929;SDS011;58588;48.102;19.682;2022-10-14T09:18:49;25.75;;;13.75;;
70929;SDS011;58588;48.102;19.682;2022-10-14T09:21:54;23.73;;;12.90;;
70929;SDS011;58588;48.102;19.682;2022-10-14T09:24:57;32.25;;;13.40;;
70929;SDS011;58588;48.102;19.682;2022-10-14T09:28:00;25.48;;;12.32;;
70929;SDS011;58588;48.102;19.682;2022-10-14T09:31:03;21.67;;;12.50;;
70929;SDS011;58588;48.102;19.682;2022-10-14T09:34:06;22.90;;;12.45;;
70929;SDS011;58588;48.102;19.682;2022-10-14T09:37:22;25.93;;;11.70;;
70929;SDS011;58588;48.102;19.682;2022-10-14T09:40:29;23.90;;;12.55;;
70929;SDS011;58588;48.102;19.682;2022-10-14T09:43:32;20.90;;;10.95;;
70929;SDS011;58588;48.102;19.682;2022-10-14T09:46:34;22.75;;;10.70;;
70929;SDS011;58588;48.102;19.682;2022-10-14T09:49:37;21.13;;;9.30;;
70929;SDS011;58588;48.102;19.682;2022-10-14T09:52:41;19.87;;;9.97;;
70929;SDS011;58588;48.102;19.682;2022-10-14T09:55:46;20.98;;;11.13;;
70929;SDS011;58588;48.102;19.682;2022-10-14T09:58:50;23.58;;;11.48;;
70929;SDS011;58588;48.102;19.682;2022-10-14T10:01:57;21.83;;;11.20;;
70929;SDS011;58588;48.102;19.682;2022-10-14T10:05:10;22.70;;;10.60;;
70929;SDS011;58588;48.102;19.682;2022-10-14T10:08:16;20.20;;;11.07;;
70929;SDS011;58588;48.102;19.682;2022-10-14T10:11:27;17.90;;;10.18;;
70929;SDS011;58588;48.102;19.682;2022-10-14T10:14:31;18.33;;;9.82;;
70929;SDS011;58588;48.102;19.682;2022-10-14T10:17:34;17.23;;;9.60;;
70929;SDS011;58588;48.102;19.682;2022-10-14T10:20:40;22.92;;;11.00;;
70929;SDS011;58588;48.102;19.682;2022-10-14T10:23:48;22.73;;;10.97;;
70929;SDS011;58588;48.102;19.682;2022-10-14T10:26:53;20.88;;;9.85;;
70929;SDS011;58588;48.102;19.682;2022-10-14T10:29:55;19.67;;;9.57;;
70929;SDS011;58588;48.102;19.682;2022-10-14T10:36:21;25.85;;;10.40;;
70929;SDS011;58588;48.102;19.682;2022-10-14T10:39:31;18.23;;;9.37;;
70929;SDS011;58588;48.102;19.682;2022-10-14T10:42:42;19.30;;;9.52;;
70929;SDS011;58588;48.102;19.682;2022-10-14T10:45:53;18.48;;;9.35;;
70929;SDS011;58588;48.102;19.682;2022-10-14T10:49:11;21.10;;;9.63;;
70929;SDS011;58588;48.102;19.682;2022-10-14T10:52:23;19.08;;;9.57;;
70929;SDS011;58588;48.102;19.682;2022-10-14T10:55:36;19.67;;;8.97;;
70929;SDS011;58588;48.102;19.682;2022-10-14T10:58:51;16.63;;;9.40;;
70929;SDS011;58588;48.102;19.682;2022-10-14T11:02:15;20.02;;;9.43;;
70929;SDS011;58588;48.102;19.682;2022-10-14T11:05:40;16.63;;;8.70;;
70929;SDS011;58588;48.102;19.682;2022-10-14T11:08:52;18.88;;;9.07;;
70929;SDS011;58588;48.102;19.682;2022-10-14T11:12:19;16.43;;;8.43;;
70929;SDS011;58588;48.102;19.682;2022-10-14T11:15:31;16.67;;;8.57;;
70929;SDS011;58588;48.102;19.682;2022-10-14T11:18:49;19.80;;;9.30;;
70929;SDS011;58588;48.102;19.682;2022-10-14T11:22:00;17.27;;;8.38;;
70929;SDS011;58588;48.102;19.682;2022-10-14T11:25:14;18.35;;;8.20;;
70929;SDS011;58588;48.102;19.682;2022-10-14T11:28:24;16.57;;;8.57;;
70929;SDS011;58588;48.102;19.682;2022-10-14T11:31:34;17.30;;;8.30;;
70929;SDS011;58588;48.102;19.682;2022-10-14T11:34:41;18.85;;;8.30;;
70929;SDS011;58588;48.102;19.682;2022-10-14T11:37:51;20.60;;;8.68;;
70929;SDS011;58588;48.102;19.682;2022-10-14T11:41:05;18.25;;;8.45;;
70929;SDS011;58588;48.102;19.682;2022-10-14T11:44:14;15.17;;;7.90;;
70929;SDS011;58588;48.102;19.682;2022-10-14T11:47:27;16.75;;;8.93;;
70929;SDS011;58588;48.102;19.682;2022-10-14T11:50:35;23.77;;;10.68;;
70929;SDS011;58588;48.102;19.682;2022-10-14T11:53:46;18.00;;;8.30;;
70929;SDS011;58588;48.102;19.682;2022-10-14T11:56:56;19.92;;;7.85;;
70929;SDS011;58588;48.102;19.682;2022-10-14T12:00:02;14.53;;;7.60;;
70929;SDS011;58588;48.102;19.682;2022-10-14T12:03:10;15.68;;;7.80;;
70929;SDS011;58588;48.102;19.682;2022-10-14T12:06:20;15.93;;;7.35;;
70929;SDS011;58588;48.102;19.682;2022-10-14T12:09:28;16.25;;;8.02;;
70929;SDS011;58588;48.102;19.682;2022-10-14T12:12:38;15.15;;;7.15;;
70929;SDS011;58588;48.102;19.682;2022-10-14T12:15:42;20.33;;;8.50;;
70929;SDS011;58588;48.102;19.682;2022-10-14T12:18:51;16.65;;;8.30;;
70929;SDS011;58588;48.102;19.682;2022-10-14T12:22:08;17.90;;;8.40;;
70929;SDS011;58588;48.102;19.682;2022-10-14T12:25:17;15.63;;;7.82;;
70929;SDS011;58588;48.102;19.682;2022-10-14T12:28:23;17.42;;;7.82;;
70929;SDS011;58588;48.102;19.682;2022-10-14T12:31:33;17.77;;;7.90;;
70929;SDS011;58588;48.102;19.682;2022-10-14T12:34:38;15.65;;;7.32;;
70929;SDS011;58588;48.102;19.682;2022-10-14T12:37:47;22.15;;;10.40;;
70929;SDS011;58588;48.102;19.682;2022-10-14T12:40:51;16.45;;;7.72;;
70929;SDS011;58588;48.102;19.682;2022-10-14T12:43:57;13.45;;;7.05;;
70929;SDS011;58588;48.102;19.682;2022-10-14T12:47:01;14.57;;;6.97;;
70929;SDS011;58588;48.102;19.682;2022-10-14T12:53:29;16.98;;;7.82;;
70929;SDS011;58588;48.102;19.682;2022-10-14T12:56:35;13.48;;;7.45;;
70929;SDS011;58588;48.102;19.682;2022-10-14T12:59:39;19.55;;;7.53;;
70929;SDS011;58588;48.102;19.682;2022-10-14T13:02:42;15.90;;;7.00;;
70929;SDS011;58588;48.102;19.682;2022-10-14T13:05:48;14.18;;;7.50;;
70929;SDS011;58588;48.102;19.682;2022-10-14T13:12:37;13.90;;;7.38;;
70929;SDS011;58588;48.102;19.682;2022-10-14T13:15:49;18.88;;;6.70;;
70929;SDS011;58588;48.102;19.682;2022-10-14T13:18:52;19.93;;;9.10;;
70929;SDS011;58588;48.102;19.682;2022-10-14T13:21:56;12.13;;;6.25;;
70929;SDS011;58588;48.102;19.682;2022-10-14T13:24:59;14.18;;;6.50;;
70929;SDS011;58588;48.102;19.682;2022-10-14T13:28:12;17.58;;;7.05;;
70929;SDS011;58588;48.102;19.682;2022-10-14T13:31:24;15.50;;;6.60;;
70929;SDS011;58588;48.102;19.682;2022-10-14T13:34:38;12.63;;;6.27;;
70929;SDS011;58588;48.102;19.682;2022-10-14T13:37:55;14.70;;;5.95;;
70929;SDS011;58588;48.102;19.682;2022-10-14T13:41:00;12.90;;;6.25;;
70929;SDS011;58588;48.102;19.682;2022-10-14T13:44:04;12.00;;;6.75;;
70929;SDS011;58588;48.102;19.682;2022-10-14T13:47:08;17.83;;;6.43;;
70929;SDS011;58588;48.102;19.682;2022-10-14T13:50:14;14.07;;;6.33;;
70929;SDS011;58588;48.102;19.682;2022-10-14T13:53:21;13.13;;;6.97;;
70929;SDS011;58588;48.102;19.682;2022-10-14T13:56:23;13.25;;;6.90;;
70929;SDS011;58588;48.102;19.682;2022-10-14T13:59:27;14.07;;;6.70;;
70929;SDS011;58588;48.102;19.682;2022-10-14T14:02:30;14.75;;;6.97;;
70929;SDS011;58588;48.102;19.682;2022-10-14T14:05:33;27.33;;;7.30;;
70929;SDS011;58588;48.102;19.682;2022-10-14T14:08:39;14.38;;;7.65;;
70929;SDS011;58588;48.102;19.682;2022-10-14T14:11:47;18.48;;;8.20;;
70929;SDS011;58588;48.102;19.682;2022-10-14T14:14:51;33.10;;;9.25;;
70929;SDS011;58588;48.102;19.682;2022-10-14T14:17:54;20.77;;;8.40;;
70929;SDS011;58588;48.102;19.682;2022-10-14T14:20:56;23.90;;;9.00;;
70929;SDS011;58588;48.102;19.682;2022-10-14T14:24:01;18.38;;;8.18;;
70929;SDS011;58588;48.102;19.682;2022-10-14T14:27:11;30.27;;;9.40;;
70929;SDS011;58588;48.102;19.682;2022-10-14T14:30:18;20.95;;;8.40;;
70929;SDS011;58588;48.102;19.682;2022-10-14T14:33:25;21.35;;;8.52;;
70929;SDS011;58588;48.102;19.682;2022-10-14T14:36:29;64.63;;;11.43;;
70929;SDS011;58588;48.102;19.682;2022-10-14T14:39:33;25.60;;;8.55;;
70929;SDS011;58588;48.102;19.682;2022-10-14T14:42:35;29.33;;;8.68;;
70929;SDS011;58588;48.102;19.682;2022-10-14T14:45:41;23.20;;;8.13;;
70929;SDS011;58588;48.102;19.682;2022-10-14T14:48:46;26.10;;;8.85;;
70929;SDS011;58588;48.102;19.682;2022-10-14T14:51:53;42.00;;;9.43;;
70929;SDS011;58588;48.102;19.682;2022-10-14T14:54:58;136.43;;;14.05;;
70929;SDS011;58588;48.102;19.682;2022-10-14T14:58:00;16.27;;;8.32;;
70929;SDS011;58588;48.102;19.682;2022-10-14T15:01:04;104.50;;;13.80;;
70929;SDS011;58588;48.102;19.682;2022-10-14T15:04:13;97.85;;;16.77;;
70929;SDS011;58588;48.102;19.682;2022-10-14T15:07:17;37.67;;;19.77;;
70929;SDS011;58588;48.102;19.682;2022-10-14T15:10:24;65.38;;;19.08;;
70929;SDS011;58588;48.102;19.682;2022-10-14T15:13:41;28.02;;;15.65;;
70929;SDS011;58588;48.102;19.682;2022-10-14T15:16:45;86.10;;;34.85;;
70929;SDS011;58588;48.102;19.682;2022-10-14T15:19:53;92.40;;;35.17;;
70929;SDS011;58588;48.102;19.682;2022-10-14T15:22:55;63.57;;;23.70;;
70929;SDS011;58588;48.102;19.682;2022-10-14T15:25:59;59.35;;;21.60;;
70929;SDS011;58588;48.102;19.682;2022-10-14T15:29:02;42.17;;;19.58;;
70929;SDS011;58588;48.102;19.682;2022-10-14T15:32:19;34.63;;;16.80;;
70929;SDS011;58588;48.102;19.682;2022-10-14T15:35:22;28.95;;;14.18;;
70929;SDS011;58588;48.102;19.682;2022-10-14T15:38:24;36.80;;;18.60;;
70929;SDS011;58588;48.102;19.682;2022-10-14T15:41:28;39.25;;;16.70;;
70929;SDS011;58588;48.102;19.682;2022-10-14T15:44:30;34.63;;;16.42;;
70929;SDS011;58588;48.102;19.682;2022-10-14T15:47:32;23.95;;;11.18;;
70929;SDS011;58588;48.102;19.682;2022-10-14T15:50:35;21.40;;;11.48;;
70929;SDS011;58588;48.102;19.682;2022-10-14T15:53:38;26.63;;;12.60;;
70929;SDS011;58588;48.102;19.682;2022-10-14T15:56:42;23.80;;;12.02;;
70929;SDS011;58588;48.102;19.682;2022-10-14T15:59:45;24.60;;;12.95;;
70929;SDS011;58588;48.102;19.682;2022-10-14T16:02:48;24.73;;;13.80;;
70929;SDS011;58588;48.102;19.682;2022-10-14T16:05:53;27.20;;;13.57;;
70929;SDS011;58588;48.102;19.682;2022-10-14T16:08:55;30.67;;;13.43;;
70929;SDS011;58588;48.102;19.682;2022-10-14T16:11:59;57.92;;;25.83;;
70929;SDS011;58588;48.102;19.682;2022-10-14T16:15:01;44.22;;;21.17;;
70929;SDS011;58588;48.102;19.682;2022-10-14T16:18:04;77.78;;;35.63;;
70929;SDS011;58588;48.102;19.682;2022-10-14T16:21:07;51.70;;;29.75;;
70929;SDS011;58588;48.102;19.682;2022-10-14T16:24:14;45.13;;;26.27;;
70929;SDS011;58588;48.102;19.682;2022-10-14T16:27:19;54.88;;;24.08;;
70929;SDS011;58588;48.102;19.682;2022-10-14T16:30:23;56.83;;;26.52;;
70929;SDS011;58588;48.102;19.682;2022-10-14T16:33:27;52.88;;;26.30;;
70929;SDS011;58588;48.102;19.682;2022-10-14T16:36:29;51.70;;;25.50;;
70929;SDS011;58588;48.102;19.682;2022-10-14T16:39:32;48.10;;;24.93;;
70929;SDS011;58588;48.102;19.682;2022-10-14T16:42:36;41.95;;;21.65;;
70929;SDS011;58588;48.102;19.682;2022-10-14T16:45:38;41.67;;;23.08;;
70929;SDS011;58588;48.102;19.682;2022-10-14T16:48:40;65.97;;;28.95;;
70929;SDS011;58588;48.102;19.682;2022-10-14T16:52:02;57.70;;;29.47;;
70929;SDS011;58588;48.102;19.682;2022-10-14T16:55:04;38.43;;;21.73;;
70929;SDS011;58588;48.102;19.682;2022-10-14T16:58:08;35.30;;;20.38;;
70929;SDS011;58588;48.102;19.682;2022-10-14T17:01:10;33.58;;;19.83;;
70929;SDS011;58588;48.102;19.682;2022-10-14T17:04:12;41.22;;;24.25;;
70929;SDS011;58588;48.102;19.682;2022-10-14T17:07:15;40.27;;;21.27;;
70929;SDS011;58588;48.102;19.682;2022-10-14T17:10:20;37.40;;;20.23;;
70929;SDS011;58588;48.102;19.682;2022-10-14T17:13:27;48.90;;;24.88;;
70929;SDS011;58588;48.102;19.682;2022-10-14T17:16:29;43.60;;;23.42;;
70929;SDS011;58588;48.102;19.682;2022-10-14T17:19:32;37.47;;;21.15;;
70929;SDS011;58588;48.102;19.682;2022-10-14T17:22:34;38.13;;;21.53;;
70929;SDS011;58588;48.102;19.682;2022-10-14T17:25:36;37.57;;;19.63;;
70929;SDS011;58588;48.102;19.682;2022-10-14T17:28:40;29.90;;;15.70;;
70929;SDS011;58588;48.102;19.682;2022-10-14T17:31:42;25.55;;;14.30;;
70929;SDS011;58588;48.102;19.682;2022-10-14T17:34:44;26.70;;;15.30;;
70929;SDS011;58588;48.102;19.682;2022-10-14T17:37:46;50.70;;;26.47;;
70929;SDS011;58588;48.102;19.682;2022-10-14T17:40:48;39.67;;;22.17;;
70929;SDS011;58588;48.102;19.682;2022-10-14T17:43:52;47.10;;;23.02;;
70929;SDS011;58588;48.102;19.682;2022-10-14T17:46:55;57.33;;;27.45;;
70929;SDS011;58588;48.102;19.682;2022-10-14T17:49:59;70.30;;;31.33;;
70929;SDS011;58588;48.102;19.682;2022-10-14T17:53:01;101.60;;;47.53;;
70929;SDS011;58588;48.102;19.682;2022-10-14T17:56:04;94.53;;;43.00;;
70929;SDS011;58588;48.102;19.682;2022-10-14T17:59:09;102.03;;;44.83;;
70929;SDS011;58588;48.102;19.682;2022-10-14T18:02:13;70.28;;;36.38;;